sensor_id;sensor_type;location;lat;lon;timestamp;pressure;altitude;pressure_sealevel;temperature;humidity
19114;BME280;9689;51.052;13.772;2022-11-20T00:03:27;100080.81;;;-4.44;84.08
19114;BME280;9689;51.052;13.772;2022-11-20T00:08:28;100090.19;;;-4.43;83.98
19114;BME280;9689;51.052;13.772;2022-11-20T00:13:30;100081.63;;;-4.45;83.83
19114;BME280;9689;51.052;13.772;2022-11-20T00:18:32;100088.53;;;-4.65;83.93
19114;BME280;9689;51.052;13.772;2022-11-20T00:23:33;100079.50;;;-4.57;84.47
19114;BME280;9689;51.052;13.772;2022-11-20T00:28:35;100084.66;;;-4.55;84.29
19114;BME280;9689;51.052;13.772;2022-11-20T00:33:36;100089.78;;;-4.53;83.70
19114;BME280;9689;51.052;13.772;2022-11-20T00:38:37;100088.88;;;-4.56;83.61
19114;BME280;9689;51.052;13.772;2022-11-20T00:43:39;100102.22;;;-4.61;83.50
19114;BME280;9689;51.052;13.772;2022-11-20T00:48:41;100096.22;;;-4.63;83.70
19114;BME280;9689;51.052;13.772;2022-11-20T00:53:42;100109.84;;;-4.61;83.68
19114;BME280;9689;51.052;13.772;2022-11-20T00:58:46;100108.91;;;-4.63;83.42
19114;BME280;9689;51.052;13.772;2022-11-20T01:03:49;100105.28;;;-4.70;83.63
19114;BME280;9689;51.052;13.772;2022-11-20T01:08:53;100095.09;;;-4.70;83.56
19114;BME280;9689;51.052;13.772;2022-11-20T01:13:56;100102.69;;;-4.71;83.10
19114;BME280;9689;51.052;13.772;2022-11-20T01:18:59;100106.22;;;-4.68;82.95
19114;BME280;9689;51.052;13.772;2022-11-20T01:24:01;100101.66;;;-4.76;83.10
19114;BME280;9689;51.052;13.772;2022-11-20T01:29:04;100096.63;;;-4.75;83.29
19114;BME280;9689;51.052;13.772;2022-11-20T01:34:07;100096.44;;;-4.79;83.05
19114;BME280;9689;51.052;13.772;2022-11-20T01:39:11;100098.78;;;-4.86;83.13
19114;BME280;9689;51.052;13.772;2022-11-20T01:44:16;100082.66;;;-4.86;83.01
19114;BME280;9689;51.052;13.772;2022-11-20T01:49:21;100088.25;;;-4.95;83.29
19114;BME280;9689;51.052;13.772;2022-11-20T01:54:26;100078.97;;;-4.94;82.94
19114;BME280;9689;51.052;13.772;2022-11-20T01:59:31;100092.34;;;-4.98;83.48
19114;BME280;9689;51.052;13.772;2022-11-20T02:04:33;100071.03;;;-5.02;83.22
19114;BME280;9689;51.052;13.772;2022-11-20T02:09:34;100073.03;;;-4.71;83.93
19114;BME280;9689;51.052;13.772;2022-11-20T02:14:36;100080.44;;;-4.99;83.03
19114;BME280;9689;51.052;13.772;2022-11-20T02:19:36;100070.69;;;-5.11;83.81
19114;BME280;9689;51.052;13.772;2022-11-20T02:24:39;100071.50;;;-5.12;83.39
19114;BME280;9689;51.052;13.772;2022-11-20T02:29:43;100068.66;;;-5.20;83.80
19114;BME280;9689;51.052;13.772;2022-11-20T02:34:45;100063.56;;;-5.20;83.76
19114;BME280;9689;51.052;13.772;2022-11-20T02:39:49;100064.94;;;-5.28;83.82
19114;BME280;9689;51.052;13.772;2022-11-20T02:44:51;100064.25;;;-5.24;83.88
19114;BME280;9689;51.052;13.772;2022-11-20T02:49:52;100059.88;;;-5.28;83.86
19114;BME280;9689;51.052;13.772;2022-11-20T02:54:54;100060.44;;;-5.35;83.79
19114;BME280;9689;51.052;13.772;2022-11-20T02:59:55;100056.31;;;-5.31;83.90
19114;BME280;9689;51.052;13.772;2022-11-20T03:04:56;100058.06;;;-5.30;83.91
19114;BME280;9689;51.052;13.772;2022-11-20T03:09:58;100062.16;;;-5.34;83.43
19114;BME280;9689;51.052;13.772;2022-11-20T03:14:59;100057.88;;;-5.35;83.57
19114;BME280;9689;51.052;13.772;2022-11-20T03:20:00;100053.63;;;-5.36;83.92
19114;BME280;9689;51.052;13.772;2022-11-20T03:25:02;100043.31;;;-5.39;83.54
19114;BME280;9689;51.052;13.772;2022-11-20T03:30:05;100040.63;;;-5.44;83.99
19114;BME280;9689;51.052;13.772;2022-11-20T03:35:06;100043.06;;;-5.47;83.78
19114;BME280;9689;51.052;13.772;2022-11-20T03:40:09;100042.28;;;-5.44;84.42
19114;BME280;9689;51.052;13.772;2022-11-20T03:45:10;100045.09;;;-5.38;83.81
19114;BME280;9689;51.052;13.772;2022-11-20T03:50:13;100041.69;;;-5.38;83.68
19114;BME280;9689;51.052;13.772;2022-11-20T03:55:15;100047.44;;;-5.43;83.08
19114;BME280;9689;51.052;13.772;2022-11-20T04:00:16;100045.34;;;-5.53;83.19
19114;BME280;9689;51.052;13.772;2022-11-20T04:05:17;100045.34;;;-5.53;83.65
19114;BME280;9689;51.052;13.772;2022-11-20T04:10:19;100044.34;;;-5.56;83.20
19114;BME280;9689;51.052;13.772;2022-11-20T04:15:20;100035.75;;;-5.60;83.39
19114;BME280;9689;51.052;13.772;2022-11-20T04:20:21;100030.34;;;-5.68;82.92
19114;BME280;9689;51.052;13.772;2022-11-20T04:25:23;100029.53;;;-5.66;83.11
19114;BME280;9689;51.052;13.772;2022-11-20T04:30:24;100017.59;;;-5.69;83.24
19114;BME280;9689;51.052;13.772;2022-11-20T04:35:25;100015.75;;;-5.73;83.87
19114;BME280;9689;51.052;13.772;2022-11-20T04:40:27;100007.16;;;-5.77;83.05
19114;BME280;9689;51.052;13.772;2022-11-20T04:45:28;100012.78;;;-5.84;83.35
19114;BME280;9689;51.052;13.772;2022-11-20T04:50:29;100009.69;;;-5.77;83.67
19114;BME280;9689;51.052;13.772;2022-11-20T04:55:31;100011.56;;;-5.73;83.23
19114;BME280;9689;51.052;13.772;2022-11-20T05:00:32;100009.69;;;-5.77;83.37
19114;BME280;9689;51.052;13.772;2022-11-20T05:05:33;100020.63;;;-5.78;83.46
19114;BME280;9689;51.052;13.772;2022-11-20T05:10:35;100022.19;;;-5.81;83.02
19114;BME280;9689;51.052;13.772;2022-11-20T05:15:36;100022.91;;;-5.84;83.10
19114;BME280;9689;51.052;13.772;2022-11-20T05:20:37;100015.38;;;-5.82;83.22
19114;BME280;9689;51.052;13.772;2022-11-20T05:25:39;100013.78;;;-5.80;82.88
19114;BME280;9689;51.052;13.772;2022-11-20T05:30:40;100017.78;;;-5.85;82.92
19114;BME280;9689;51.052;13.772;2022-11-20T05:35:41;100009.31;;;-5.86;83.69
19114;BME280;9689;51.052;13.772;2022-11-20T05:40:43;100008.22;;;-5.92;83.83
19114;BME280;9689;51.052;13.772;2022-11-20T05:45:51;100005.81;;;-5.89;83.21
19114;BME280;9689;51.052;13.772;2022-11-20T05:50:52;100003.09;;;-5.94;83.69
19114;BME280;9689;51.052;13.772;2022-11-20T05:55:58;100003.03;;;-5.95;83.76
19114;BME280;9689;51.052;13.772;2022-11-20T06:01:05;100001.25;;;-5.98;83.67
19114;BME280;9689;51.052;13.772;2022-11-20T06:06:06;100008.09;;;-5.95;83.35
19114;BME280;9689;51.052;13.772;2022-11-20T06:11:10;99992.78;;;-5.99;83.06
19114;BME280;9689;51.052;13.772;2022-11-20T06:16:13;99993.50;;;-6.01;83.88
19114;BME280;9689;51.052;13.772;2022-11-20T06:21:16;99984.59;;;-5.91;83.33
19114;BME280;9689;51.052;13.772;2022-11-20T06:26:20;99985.81;;;-6.03;83.49
19114;BME280;9689;51.052;13.772;2022-11-20T06:31:23;99987.63;;;-6.00;83.23
19114;BME280;9689;51.052;13.772;2022-11-20T06:36:24;99987.00;;;-5.94;83.21
19114;BME280;9689;51.052;13.772;2022-11-20T06:41:27;99993.00;;;-5.92;82.70
19114;BME280;9689;51.052;13.772;2022-11-20T06:46:28;99981.19;;;-5.92;82.48
19114;BME280;9689;51.052;13.772;2022-11-20T06:51:29;99981.34;;;-5.87;82.40
19114;BME280;9689;51.052;13.772;2022-11-20T06:56:31;99983.19;;;-5.83;82.52
19114;BME280;9689;51.052;13.772;2022-11-20T07:01:32;99971.50;;;-5.80;82.00
19114;BME280;9689;51.052;13.772;2022-11-20T07:06:33;99966.53;;;-5.77;82.19
19114;BME280;9689;51.052;13.772;2022-11-20T07:11:35;99977.63;;;-5.75;82.79
19114;BME280;9689;51.052;13.772;2022-11-20T07:16:36;99972.78;;;-5.69;82.26
19114;BME280;9689;51.052;13.772;2022-11-20T07:21:36;99970.00;;;-5.54;82.28
19114;BME280;9689;51.052;13.772;2022-11-20T07:26:39;99966.81;;;-5.48;81.74
19114;BME280;9689;51.052;13.772;2022-11-20T07:31:42;99959.47;;;-5.41;81.92
19114;BME280;9689;51.052;13.772;2022-11-20T07:36:43;99958.81;;;-5.36;82.10
19114;BME280;9689;51.052;13.772;2022-11-20T07:41:45;99965.16;;;-5.25;81.85
19114;BME280;9689;51.052;13.772;2022-11-20T07:46:46;99959.25;;;-5.02;81.95
19114;BME280;9689;51.052;13.772;2022-11-20T07:51:49;99961.59;;;-4.84;81.47
19114;BME280;9689;51.052;13.772;2022-11-20T07:56:52;99951.94;;;-4.45;83.79
19114;BME280;9689;51.052;13.772;2022-11-20T08:01:54;99952.66;;;-4.49;82.01
19114;BME280;9689;51.052;13.772;2022-11-20T08:06:55;99945.03;;;-4.49;81.55
19114;BME280;9689;51.052;13.772;2022-11-20T08:11:58;99944.00;;;-4.29;81.49
19114;BME280;9689;51.052;13.772;2022-11-20T08:17:16;99947.72;;;-4.19;81.06
19114;BME280;9689;51.052;13.772;2022-11-20T08:22:17;99949.00;;;-4.06;81.34
19114;BME280;9689;51.052;13.772;2022-11-20T08:27:19;99950.28;;;-3.92;81.20
19114;BME280;9689;51.052;13.772;2022-11-20T08:32:20;99942.94;;;-3.83;80.31
19114;BME280;9689;51.052;13.772;2022-11-20T08:37:21;99946.09;;;-3.64;79.97
19114;BME280;9689;51.052;13.772;2022-11-20T08:42:23;99948.94;;;-3.55;79.85
19114;BME280;9689;51.052;13.772;2022-11-20T08:47:24;99936.78;;;-3.35;79.65
19114;BME280;9689;51.052;13.772;2022-11-20T08:52:25;99930.31;;;-3.24;79.47
19114;BME280;9689;51.052;13.772;2022-11-20T08:57:27;99922.22;;;-3.11;79.29
19114;BME280;9689;51.052;13.772;2022-11-20T09:02:28;99910.03;;;-2.91;78.86
19114;BME280;9689;51.052;13.772;2022-11-20T09:07:29;99898.22;;;-2.88;78.75
19114;BME280;9689;51.052;13.772;2022-11-20T09:12:32;99901.34;;;-2.66;77.93
19114;BME280;9689;51.052;13.772;2022-11-20T09:17:32;99889.69;;;-2.57;78.17
19114;BME280;9689;51.052;13.772;2022-11-20T09:22:33;99890.81;;;-2.45;77.81
19114;BME280;9689;51.052;13.772;2022-11-20T09:27:36;99890.38;;;-2.29;76.82
19114;BME280;9689;51.052;13.772;2022-11-20T09:32:38;99892.63;;;-2.08;75.88
19114;BME280;9689;51.052;13.772;2022-11-20T09:37:39;99890.31;;;-1.97;75.62
19114;BME280;9689;51.052;13.772;2022-11-20T09:42:45;99883.88;;;-1.82;74.98
19114;BME280;9689;51.052;13.772;2022-11-20T09:48:04;99890.97;;;-1.68;75.30
19114;BME280;9689;51.052;13.772;2022-11-20T09:53:14;99887.03;;;-1.54;74.34
19114;BME280;9689;51.052;13.772;2022-11-20T09:58:25;99888.19;;;-1.40;73.63
19114;BME280;9689;51.052;13.772;2022-11-20T10:03:37;99879.78;;;-1.34;73.23
19114;BME280;9689;51.052;13.772;2022-11-20T10:08:44;99873.94;;;-1.29;72.95
19114;BME280;9689;51.052;13.772;2022-11-20T10:13:52;99870.28;;;-0.98;71.74
19114;BME280;9689;51.052;13.772;2022-11-20T10:19:13;99877.28;;;-0.89;70.72
19114;BME280;9689;51.052;13.772;2022-11-20T10:24:44;99861.25;;;-0.79;69.02
19114;BME280;9689;51.052;13.772;2022-11-20T10:29:53;99842.66;;;-0.70;68.79
19114;BME280;9689;51.052;13.772;2022-11-20T10:35:02;99840.34;;;-0.58;68.39
19114;BME280;9689;51.052;13.772;2022-11-20T10:40:19;99849.84;;;-0.51;67.64
19114;BME280;9689;51.052;13.772;2022-11-20T10:45:32;99846.75;;;-0.32;67.16
19114;BME280;9689;51.052;13.772;2022-11-20T10:50:42;99845.75;;;0.15;66.33
19114;BME280;9689;51.052;13.772;2022-11-20T10:55:47;99838.91;;;0.79;63.64
19114;BME280;9689;51.052;13.772;2022-11-20T11:01:03;99839.41;;;0.50;63.36
19114;BME280;9689;51.052;13.772;2022-11-20T11:06:08;99831.81;;;0.60;63.97
19114;BME280;9689;51.052;13.772;2022-11-20T11:11:20;99819.09;;;0.66;64.24
19114;BME280;9689;51.052;13.772;2022-11-20T11:16:25;99815.09;;;0.88;64.49
19114;BME280;9689;51.052;13.772;2022-11-20T11:21:26;99810.84;;;0.94;64.11
19114;BME280;9689;51.052;13.772;2022-11-20T11:26:27;99799.88;;;1.06;63.61
19114;BME280;9689;51.052;13.772;2022-11-20T11:31:31;99789.84;;;1.30;63.99
19114;BME280;9689;51.052;13.772;2022-11-20T11:36:33;99785.63;;;1.37;65.92
19114;BME280;9689;51.052;13.772;2022-11-20T11:41:35;99789.38;;;0.86;65.21
19114;BME280;9689;51.052;13.772;2022-11-20T11:46:37;99778.06;;;0.66;66.25
19114;BME280;9689;51.052;13.772;2022-11-20T11:51:47;99776.38;;;0.69;67.20
19114;BME280;9689;51.052;13.772;2022-11-20T11:56:53;99766.72;;;0.45;69.19
19114;BME280;9689;51.052;13.772;2022-11-20T12:01:59;99755.66;;;0.51;69.54
19114;BME280;9689;51.052;13.772;2022-11-20T12:07:10;99744.63;;;0.53;70.01
19114;BME280;9689;51.052;13.772;2022-11-20T12:12:35;99744.69;;;0.61;70.38
19114;BME280;9689;51.052;13.772;2022-11-20T12:17:38;99736.94;;;0.58;70.43
19114;BME280;9689;51.052;13.772;2022-11-20T12:22:45;99734.31;;;0.52;70.31
19114;BME280;9689;51.052;13.772;2022-11-20T12:33:25;99744.25;;;1.02;69.48
19114;BME280;9689;51.052;13.772;2022-11-20T12:38:42;99748.50;;;1.00;68.73
19114;BME280;9689;51.052;13.772;2022-11-20T12:44:01;99752.50;;;0.73;70.17
19114;BME280;9689;51.052;13.772;2022-11-20T12:49:30;99738.06;;;0.80;70.68
19114;BME280;9689;51.052;13.772;2022-11-20T12:55:00;99735.53;;;0.86;70.58
19114;BME280;9689;51.052;13.772;2022-11-20T13:00:15;99737.31;;;0.92;70.97
19114;BME280;9689;51.052;13.772;2022-11-20T13:05:23;99737.31;;;0.92;70.73
19114;BME280;9689;51.052;13.772;2022-11-20T13:10:31;99737.38;;;1.01;71.18
19114;BME280;9689;51.052;13.772;2022-11-20T13:15:47;99734.75;;;0.92;71.93
19114;BME280;9689;51.052;13.772;2022-11-20T13:20:51;99732.94;;;0.81;73.00
19114;BME280;9689;51.052;13.772;2022-11-20T13:26:03;99715.84;;;0.80;73.03
19114;BME280;9689;51.052;13.772;2022-11-20T13:31:04;99716.72;;;0.85;72.82
19114;BME280;9689;51.052;13.772;2022-11-20T13:36:22;99709.88;;;0.83;72.42
19114;BME280;9689;51.052;13.772;2022-11-20T13:41:24;99707.28;;;0.81;72.09
19114;BME280;9689;51.052;13.772;2022-11-20T13:46:37;99712.41;;;0.78;72.90
19114;BME280;9689;51.052;13.772;2022-11-20T13:51:43;99709.00;;;0.79;72.90
19114;BME280;9689;51.052;13.772;2022-11-20T13:56:56;99704.72;;;0.81;72.67
19114;BME280;9689;51.052;13.772;2022-11-20T14:01:59;99714.97;;;0.81;73.07
19114;BME280;9689;51.052;13.772;2022-11-20T14:07:05;99715.75;;;0.71;72.69
19114;BME280;9689;51.052;13.772;2022-11-20T14:12:14;99714.13;;;0.81;72.17
19114;BME280;9689;51.052;13.772;2022-11-20T14:17:18;99710.69;;;0.80;71.73
19114;BME280;9689;51.052;13.772;2022-11-20T14:22:22;99714.06;;;0.76;71.56
19114;BME280;9689;51.052;13.772;2022-11-20T14:27:23;99709.78;;;0.74;71.95
19114;BME280;9689;51.052;13.772;2022-11-20T14:32:28;99703.78;;;0.72;72.28
19114;BME280;9689;51.052;13.772;2022-11-20T14:37:33;99707.13;;;0.65;72.52
19114;BME280;9689;51.052;13.772;2022-11-20T14:42:34;99715.38;;;0.39;73.49
19114;BME280;9689;51.052;13.772;2022-11-20T14:47:37;99704.09;;;0.22;74.15
19114;BME280;9689;51.052;13.772;2022-11-20T14:52:50;99706.41;;;0.02;74.61
19114;BME280;9689;51.052;13.772;2022-11-20T14:57:55;99688.19;;;-0.19;75.63
19114;BME280;9689;51.052;13.772;2022-11-20T15:02:56;99700.13;;;-0.20;75.59
19114;BME280;9689;51.052;13.772;2022-11-20T15:08:08;99701.75;;;-0.26;76.32
19114;BME280;9689;51.052;13.772;2022-11-20T15:13:12;99688.78;;;-0.37;76.24
19114;BME280;9689;51.052;13.772;2022-11-20T15:18:15;99702.31;;;-0.46;76.45
19114;BME280;9689;51.052;13.772;2022-11-20T15:23:19;99691.91;;;-0.58;77.29
19114;BME280;9689;51.052;13.772;2022-11-20T15:28:24;99687.56;;;-0.62;77.10
19114;BME280;9689;51.052;13.772;2022-11-20T15:33:28;99690.81;;;-0.74;78.77
19114;BME280;9689;51.052;13.772;2022-11-20T15:38:30;99686.38;;;-0.86;79.01
19114;BME280;9689;51.052;13.772;2022-11-20T15:43:31;99687.19;;;-0.88;79.12
19114;BME280;9689;51.052;13.772;2022-11-20T15:48:35;99700.50;;;-1.07;80.02
19114;BME280;9689;51.052;13.772;2022-11-20T15:53:44;99691.13;;;-1.08;79.69
19114;BME280;9689;51.052;13.772;2022-11-20T15:58:45;99693.50;;;-1.19;80.29
19114;BME280;9689;51.052;13.772;2022-11-20T16:03:46;99688.41;;;-1.18;80.62
19114;BME280;9689;51.052;13.772;2022-11-20T16:08:49;99691.91;;;-1.12;79.83
19114;BME280;9689;51.052;13.772;2022-11-20T16:13:50;99694.66;;;-1.02;80.88
19114;BME280;9689;51.052;13.772;2022-11-20T16:19:10;99699.75;;;-1.02;79.88
19114;BME280;9689;51.052;13.772;2022-11-20T16:24:13;99699.03;;;-0.95;78.58
19114;BME280;9689;51.052;13.772;2022-11-20T16:29:15;99705.56;;;-1.12;79.04
19114;BME280;9689;51.052;13.772;2022-11-20T16:34:16;99704.75;;;-1.08;79.04
19114;BME280;9689;51.052;13.772;2022-11-20T16:39:19;99704.63;;;-1.16;78.97
19114;BME280;9689;51.052;13.772;2022-11-20T16:44:22;99706.97;;;-1.29;79.33
19114;BME280;9689;51.052;13.772;2022-11-20T16:49:24;99708.50;;;-1.37;80.09
19114;BME280;9689;51.052;13.772;2022-11-20T16:54:26;99715.34;;;-1.36;80.10
19114;BME280;9689;51.052;13.772;2022-11-20T16:59:27;99713.53;;;-1.40;80.39
19114;BME280;9689;51.052;13.772;2022-11-20T17:04:28;99703.97;;;-1.52;81.49
19114;BME280;9689;51.052;13.772;2022-11-20T17:09:30;99714.75;;;-1.67;82.17
19114;BME280;9689;51.052;13.772;2022-11-20T17:14:31;99712.91;;;-1.74;82.56
19114;BME280;9689;51.052;13.772;2022-11-20T17:19:32;99717.97;;;-1.77;82.73
19114;BME280;9689;51.052;13.772;2022-11-20T17:24:34;99702.44;;;-1.86;82.47
19114;BME280;9689;51.052;13.772;2022-11-20T17:29:35;99705.66;;;-1.96;82.92
19114;BME280;9689;51.052;13.772;2022-11-20T17:34:40;99703.09;;;-1.96;83.26
19114;BME280;9689;51.052;13.772;2022-11-20T17:39:42;99698.75;;;-2.01;83.59
19114;BME280;9689;51.052;13.772;2022-11-20T17:44:44;99699.59;;;-2.00;83.41
19114;BME280;9689;51.052;13.772;2022-11-20T17:49:45;99698.53;;;-2.11;83.88
19114;BME280;9689;51.052;13.772;2022-11-20T17:54:48;99700.00;;;-2.22;84.01
19114;BME280;9689;51.052;13.772;2022-11-20T17:59:51;99695.56;;;-2.31;84.21
19114;BME280;9689;51.052;13.772;2022-11-20T18:04:52;99687.91;;;-2.31;84.34
19114;BME280;9689;51.052;13.772;2022-11-20T18:09:54;99682.69;;;-2.36;84.50
19114;BME280;9689;51.052;13.772;2022-11-20T18:14:55;99670.78;;;-2.35;84.51
19114;BME280;9689;51.052;13.772;2022-11-20T18:19:56;99670.59;;;-1.61;87.94
19114;BME280;9689;51.052;13.772;2022-11-20T18:25:18;99674.53;;;-1.77;84.59
19114;BME280;9689;51.052;13.772;2022-11-20T18:30:19;99671.25;;;-2.15;84.00
19114;BME280;9689;51.052;13.772;2022-11-20T18:35:20;99681.00;;;-2.35;84.37
19114;BME280;9689;51.052;13.772;2022-11-20T18:40:22;99669.72;;;-2.46;84.69
19114;BME280;9689;51.052;13.772;2022-11-20T18:45:23;99666.41;;;-2.42;84.36
19114;BME280;9689;51.052;13.772;2022-11-20T18:50:24;99666.31;;;-2.45;84.54
19114;BME280;9689;51.052;13.772;2022-11-20T18:55:26;99664.41;;;-2.56;84.83
19114;BME280;9689;51.052;13.772;2022-11-20T19:00:27;99665.28;;;-2.53;84.67
19114;BME280;9689;51.052;13.772;2022-11-20T19:05:28;99667.72;;;-2.60;84.64
19114;BME280;9689;51.052;13.772;2022-11-20T19:10:30;99652.34;;;-2.63;84.66
19114;BME280;9689;51.052;13.772;2022-11-20T19:15:32;99659.06;;;-2.66;84.67
19114;BME280;9689;51.052;13.772;2022-11-20T19:20:35;99652.94;;;-2.74;85.12
19114;BME280;9689;51.052;13.772;2022-11-20T19:25:37;99654.44;;;-2.82;85.53
19114;BME280;9689;51.052;13.772;2022-11-20T19:30:38;99651.88;;;-2.84;85.77
19114;BME280;9689;51.052;13.772;2022-11-20T19:35:40;99641.72;;;-2.82;85.70
19114;BME280;9689;51.052;13.772;2022-11-20T19:40:42;99639.22;;;-2.79;85.58
19114;BME280;9689;51.052;13.772;2022-11-20T19:45:43;99641.69;;;-2.84;85.70
19114;BME280;9689;51.052;13.772;2022-11-20T19:50:44;99637.50;;;-2.80;85.66
19114;BME280;9689;51.052;13.772;2022-11-20T19:55:55;99630.66;;;-2.83;85.79
19114;BME280;9689;51.052;13.772;2022-11-20T20:00:56;99629.00;;;-2.79;85.70
19114;BME280;9689;51.052;13.772;2022-11-20T20:06:00;99634.06;;;-2.82;85.75
19114;BME280;9689;51.052;13.772;2022-11-20T20:11:10;99627.25;;;-2.82;85.75
19114;BME280;9689;51.052;13.772;2022-11-20T20:16:13;99621.28;;;-2.84;85.53
19114;BME280;9689;51.052;13.772;2022-11-20T20:21:15;99620.44;;;-2.83;85.22
19114;BME280;9689;51.052;13.772;2022-11-20T20:26:19;99609.66;;;-2.71;85.50
19114;BME280;9689;51.052;13.772;2022-11-20T20:31:21;99609.09;;;-2.58;85.23
19114;BME280;9689;51.052;13.772;2022-11-20T20:36:23;99599.97;;;-2.47;84.93
19114;BME280;9689;51.052;13.772;2022-11-20T20:41:26;99609.66;;;-2.32;84.78
19114;BME280;9689;51.052;13.772;2022-11-20T20:46:26;99598.06;;;-2.16;84.79
19114;BME280;9689;51.052;13.772;2022-11-20T20:51:27;99584.63;;;-2.06;84.06
19114;BME280;9689;51.052;13.772;2022-11-20T20:56:30;99597.56;;;-1.97;84.44
19114;BME280;9689;51.052;13.772;2022-11-20T21:01:31;99583.16;;;-1.93;83.81
19114;BME280;9689;51.052;13.772;2022-11-20T21:06:32;99572.91;;;-1.95;84.10
19114;BME280;9689;51.052;13.772;2022-11-20T21:11:34;99568.72;;;-1.91;84.08
19114;BME280;9689;51.052;13.772;2022-11-20T21:16:35;99569.59;;;-1.91;83.69
19114;BME280;9689;51.052;13.772;2022-11-20T21:21:42;99550.72;;;-1.99;84.31
19114;BME280;9689;51.052;13.772;2022-11-20T21:27:04;99518.56;;;-1.89;83.81
19114;BME280;9689;51.052;13.772;2022-11-20T21:32:05;99511.84;;;-1.83;84.09
19114;BME280;9689;51.052;13.772;2022-11-20T21:37:06;99491.63;;;-1.72;83.54
19114;BME280;9689;51.052;13.772;2022-11-20T21:42:08;99474.72;;;-1.62;83.05
19114;BME280;9689;51.052;13.772;2022-11-20T21:47:10;99485.06;;;-1.56;82.81
19114;BME280;9689;51.052;13.772;2022-11-20T21:52:11;99477.22;;;-1.06;86.51
19114;BME280;9689;51.052;13.772;2022-11-20T21:57:13;99462.28;;;-0.74;84.26
19114;BME280;9689;51.052;13.772;2022-11-20T22:02:14;99458.66;;;-0.93;82.42
19114;BME280;9689;51.052;13.772;2022-11-20T22:07:15;99452.38;;;-1.18;81.24
19114;BME280;9689;51.052;13.772;2022-11-20T22:12:18;99448.84;;;-1.26;81.60
19114;BME280;9689;51.052;13.772;2022-11-20T22:17:19;99447.97;;;-1.30;81.47
19114;BME280;9689;51.052;13.772;2022-11-20T22:22:41;99419.97;;;-1.21;80.52
19114;BME280;9689;51.052;13.772;2022-11-20T22:27:44;99424.22;;;-1.21;80.97
19114;BME280;9689;51.052;13.772;2022-11-20T22:32:45;99408.97;;;-1.14;81.02
19114;BME280;9689;51.052;13.772;2022-11-20T22:37:47;99415.00;;;-1.10;80.60
19114;BME280;9689;51.052;13.772;2022-11-20T22:42:50;99410.66;;;-1.14;80.51
19114;BME280;9689;51.052;13.772;2022-11-20T22:47:51;99393.59;;;-1.15;81.04
19114;BME280;9689;51.052;13.772;2022-11-20T22:52:52;99391.13;;;-1.09;80.45
19114;BME280;9689;51.052;13.772;2022-11-20T22:57:55;99391.31;;;-0.95;80.67
19114;BME280;9689;51.052;13.772;2022-11-20T23:02:55;99380.22;;;-0.94;81.06
19114;BME280;9689;51.052;13.772;2022-11-20T23:07:56;99376.72;;;-1.04;81.75
19114;BME280;9689;51.052;13.772;2022-11-20T23:12:58;99379.22;;;-1.05;82.95
19114;BME280;9689;51.052;13.772;2022-11-20T23:17:59;99359.72;;;-0.97;83.34
19114;BME280;9689;51.052;13.772;2022-11-20T23:23:00;99343.41;;;-1.08;84.27
19114;BME280;9689;51.052;13.772;2022-11-20T23:28:02;99345.13;;;-1.09;85.03
19114;BME280;9689;51.052;13.772;2022-11-20T23:33:03;99331.38;;;-1.19;85.76
19114;BME280;9689;51.052;13.772;2022-11-20T23:38:04;99334.88;;;-1.12;85.82
19114;BME280;9689;51.052;13.772;2022-11-20T23:43:06;99317.06;;;-1.03;85.69
19114;BME280;9689;51.052;13.772;2022-11-20T23:48:17;99316.16;;;-1.06;85.59
19114;BME280;9689;51.052;13.772;2022-11-20T23:53:19;99304.22;;;-1.06;86.25
19114;BME280;9689;51.052;13.772;2022-11-20T23:58:23;99314.44;;;-1.07;86.06
